Time;durP1;ratioP1;P1;durP2;ratioP2;P2;SDS_P1;SDS_P2;PMS_P1;PMS_P2;Temp;Humidity;BMP_temperature;BMP_pressure;BME280_temperature;BME280_humidity;BME280_pressure;Samples;Min_cycle;Max_cycle;Signal;HPM_P1;HPM_P2
2021/08/08 00:01:56;;;;;;;5.95;3.75;;;25.80;93.20;;;;;;5026943;28;20041;-64
2021/08/08 00:04:22;;;;;;;7.60;3.60;;;25.80;93.30;;;;;;5005310;28;20040;-64
2021/08/08 00:06:48;;;;;;;6.18;3.25;;;25.70;93.40;;;;;;5005611;28;20079;-64
2021/08/08 00:09:14;;;;;;;6.15;3.50;;;25.70;93.40;;;;;;5015915;28;20436;-64
2021/08/08 00:11:39;;;;;;;6.25;3.40;;;25.70;93.70;;;;;;5012270;28;20125;-63
2021/08/08 00:14:05;;;;;;;5.47;3.60;;;25.70;93.80;;;;;;5022354;28;20037;-63
2021/08/08 00:16:31;;;;;;;7.85;3.67;;;25.70;94.10;;;;;;5013117;28;20033;-63
2021/08/08 00:18:57;;;;;;;6.88;3.47;;;25.70;93.90;;;;;;5006017;28;20037;-63
2021/08/08 00:21:23;;;;;;;6.85;3.63;;;25.70;94.00;;;;;;5012836;28;20038;-63
2021/08/08 00:23:48;;;;;;;9.20;4.03;;;25.70;93.90;;;;;;5018500;28;20041;-64
2021/08/08 00:26:14;;;;;;;5.18;3.42;;;25.70;93.90;;;;;;5010241;28;20030;-63
2021/08/08 00:28:40;;;;;;;5.18;3.95;;;25.70;94.20;;;;;;5011321;28;20055;-63
2021/08/08 00:31:05;;;;;;;6.22;3.92;;;25.70;94.30;;;;;;5010160;28;20037;-63
2021/08/08 00:33:31;;;;;;;8.10;4.07;;;25.70;94.30;;;;;;5028304;28;20074;-63
2021/08/08 00:35:56;;;;;;;7.50;4.03;;;25.70;94.40;;;;;;5026237;28;20047;-63
2021/08/08 00:38:22;;;;;;;3.70;3.25;;;25.70;94.30;;;;;;5020160;28;20338;-63
2021/08/08 00:40:47;;;;;;;6.78;3.38;;;25.60;94.50;;;;;;5004827;28;20065;-63
2021/08/08 00:43:13;;;;;;;6.68;3.90;;;25.60;94.80;;;;;;5022050;28;20116;-63
2021/08/08 00:45:38;;;;;;;6.05;3.40;;;25.60;94.70;;;;;;5014038;28;20105;-63
2021/08/08 00:48:04;;;;;;;5.25;3.50;;;25.60;95.10;;;;;;5024967;28;20498;-63
2021/08/08 00:50:30;;;;;;;7.63;4.15;;;25.60;95.20;;;;;;5025641;28;20065;-62
2021/08/08 00:52:56;;;;;;;7.53;3.75;;;25.60;95.20;;;;;;5026971;28;20117;-63
2021/08/08 00:55:21;;;;;;;6.00;4.05;;;25.60;95.10;;;;;;5027306;28;20470;-63
2021/08/08 00:57:47;;;;;;;4.68;3.17;;;25.50;94.90;;;;;;5029799;28;20056;-64
2021/08/08 01:00:13;;;;;;;5.97;3.90;;;25.50;95.10;;;;;;5023570;28;20471;-65
2021/08/08 01:02:51;;;;;;;4.25;3.80;;;25.50;95.30;;;;;;5027222;28;20388;-64
2021/08/08 01:05:21;;;;;;;5.80;3.97;;;25.50;95.40;;;;;;5028604;28;20479;-65
2021/08/08 01:08:10;;;;;;;7.28;3.90;;;25.50;95.50;;;;;;5027448;28;20076;-64
2021/08/08 01:10:36;;;;;;;5.45;4.10;;;25.50;96.30;;;;;;4996668;28;20483;-64
2021/08/08 01:13:03;;;;;;;7.47;4.25;;;25.50;95.50;;;;;;5028150;28;20041;-64
2021/08/08 01:15:29;;;;;;;5.60;4.00;;;25.50;95.70;;;;;;5025396;28;20030;-64
2021/08/08 01:17:57;;;;;;;6.72;4.63;;;25.50;95.80;;;;;;5015904;28;20048;-64
2021/08/08 01:20:25;;;;;;;5.47;3.88;;;25.50;96.10;;;;;;5026106;28;20073;-64
2021/08/08 01:22:58;;;;;;;5.72;3.78;;;25.50;96.30;;;;;;5016982;28;20515;-64
2021/08/08 01:25:24;;;;;;;4.72;4.32;;;25.40;96.70;;;;;;5028658;28;20687;-64
2021/08/08 01:27:58;;;;;;;6.72;4.50;;;25.40;96.80;;;;;;5024850;28;20103;-64
2021/08/08 01:30:24;;;;;;;6.18;4.15;;;25.40;98.50;;;;;;5009433;28;20057;-65
2021/08/08 01:32:50;;;;;;;6.43;4.22;;;25.40;97.50;;;;;;5008165;28;20049;-63
2021/08/08 01:35:16;;;;;;;8.30;4.15;;;25.40;97.40;;;;;;5027262;28;20104;-65
2021/08/08 01:37:42;;;;;;;6.68;4.38;;;25.40;97.20;;;;;;5005613;28;20033;-64
2021/08/08 01:40:24;;;;;;;6.28;4.10;;;25.40;97.50;;;;;;5030194;28;20029;-64
2021/08/08 01:42:52;;;;;;;4.90;3.85;;;25.40;98.50;;;;;;5011777;28;20072;-65
2021/08/08 01:45:20;;;;;;;4.43;3.67;;;25.30;97.50;;;;;;5014059;28;20045;-63
2021/08/08 01:47:51;;;;;;;6.72;4.47;;;25.30;97.80;;;;;;5018737;28;20451;-63
2021/08/08 01:50:18;;;;;;;6.32;4.25;;;25.20;97.80;;;;;;5010250;28;20038;-65
2021/08/08 01:52:44;;;;;;;5.55;4.13;;;25.30;97.90;;;;;;4995653;28;20093;-63
2021/08/08 01:55:10;;;;;;;7.55;3.75;;;25.20;97.90;;;;;;5021350;28;20076;-63
2021/08/08 01:57:36;;;;;;;4.78;3.55;;;25.20;98.00;;;;;;5024347;28;20056;-63
2021/08/08 02:00:07;;;;;;;4.35;3.90;;;25.20;97.90;;;;;;5030435;28;20038;-63
2021/08/08 02:02:33;;;;;;;4.10;3.17;;;25.20;97.90;;;;;;5012234;28;20069;-63
2021/08/08 02:04:59;;;;;;;6.65;3.85;;;25.20;97.60;;;;;;5011937;28;20073;-62
2021/08/08 02:07:25;;;;;;;4.43;3.30;;;25.10;98.00;;;;;;5008748;28;20141;-65
2021/08/08 02:09:51;;;;;;;7.55;4.22;;;25.10;97.90;;;;;;5012044;28;20048;-64
2021/08/08 02:12:16;;;;;;;8.48;4.70;;;25.10;98.00;;;;;;5005345;28;20034;-63
2021/08/08 02:14:42;;;;;;;7.72;4.05;;;25.10;98.30;;;;;;4988623;28;20037;-64
2021/08/08 02:17:07;;;;;;;7.10;4.53;;;25.10;98.50;;;;;;5018609;28;20488;-63
2021/08/08 02:19:33;;;;;;;5.70;4.55;;;25.10;98.30;;;;;;5023399;28;20036;-63
2021/08/08 02:22:00;;;;;;;7.50;4.22;;;25.10;98.40;;;;;;5029953;28;20038;-63
2021/08/08 02:24:26;;;;;;;4.57;4.15;;;25.00;98.40;;;;;;5023897;28;20034;-64
2021/08/08 02:26:51;;;;;;;6.13;4.50;;;25.00;98.50;;;;;;5018786;28;20122;-64
2021/08/08 02:29:17;;;;;;;6.25;4.03;;;25.10;98.80;;;;;;5025880;28;20041;-64
2021/08/08 02:31:44;;;;;;;6.22;4.32;;;25.00;99.10;;;;;;5028236;28;20033;-63
2021/08/08 02:34:15;;;;;;;7.28;4.88;;;25.00;99.30;;;;;;5018592;28;20052;-63
2021/08/08 02:36:41;;;;;;;5.72;4.30;;;24.90;99.40;;;;;;5014655;28;20041;-63
2021/08/08 02:39:08;;;;;;;6.95;4.22;;;24.90;99.00;;;;;;5010809;28;20650;-64
2021/08/08 02:41:34;;;;;;;8.10;4.43;;;25.00;99.30;;;;;;5029435;28;20066;-64
2021/08/08 02:44:00;;;;;;;7.32;4.30;;;25.00;99.20;;;;;;5018144;28;20195;-64
2021/08/08 02:46:25;;;;;;;6.63;4.70;;;25.00;99.40;;;;;;5027046;28;20068;-63
2021/08/08 02:48:51;;;;;;;8.20;5.03;;;25.00;99.70;;;;;;5029490;28;20053;-64
2021/08/08 02:51:17;;;;;;;8.80;4.70;;;25.00;99.90;;;;;;5018808;28;20052;-63
2021/08/08 02:53:43;;;;;;;9.93;4.60;;;25.00;99.80;;;;;;5027797;28;20207;-64
2021/08/08 02:56:09;;;;;;;5.15;4.68;;;24.80;99.70;;;;;;5022753;28;20037;-64
2021/08/08 02:58:34;;;;;;;5.97;4.10;;;24.80;99.90;;;;;;5011761;28;20041;-63
2021/08/08 03:01:00;;;;;;;6.43;3.90;;;24.80;99.90;;;;;;5003675;28;20705;-63
2021/08/08 03:03:26;;;;;;;8.15;4.75;;;24.80;99.90;;;;;;4994096;28;20103;-64
2021/08/08 03:05:51;;;;;;;6.85;4.63;;;24.80;99.90;;;;;;5011433;28;20387;-64
2021/08/08 03:08:17;;;;;;;5.57;4.28;;;24.80;99.90;;;;;;5021987;28;20061;-64
2021/08/08 03:10:42;;;;;;;8.27;4.50;;;24.70;99.90;;;;;;5008999;28;20551;-63
2021/08/08 03:13:08;;;;;;;8.32;4.63;;;24.70;99.90;;;;;;5009702;28;20040;-64
2021/08/08 03:15:34;;;;;;;8.70;4.90;;;24.70;99.90;;;;;;5007442;28;21887;-63
2021/08/08 03:18:00;;;;;;;6.00;4.63;;;24.70;99.90;;;;;;5020459;28;20069;-62
2021/08/08 03:20:25;;;;;;;7.60;4.60;;;24.60;99.90;;;;;;5006600;28;20112;-64
2021/08/08 03:22:51;;;;;;;7.53;4.50;;;24.60;99.90;;;;;;5005968;28;20030;-64
2021/08/08 03:25:17;;;;;;;7.43;5.00;;;24.60;99.90;;;;;;5026774;28;20108;-64
2021/08/08 03:27:42;;;;;;;6.75;4.38;;;24.50;99.90;;;;;;5023651;28;20388;-64
2021/08/08 03:30:09;;;;;;;6.13;4.57;;;24.40;99.90;;;;;;5028461;28;20073;-64
2021/08/08 03:32:35;;;;;;;6.57;4.88;;;24.40;99.90;;;;;;5005858;28;20151;-63
2021/08/08 03:35:01;;;;;;;6.32;4.55;;;24.50;99.90;;;;;;5023335;28;20041;-63
2021/08/08 03:37:27;;;;;;;4.78;4.28;;;24.50;99.90;;;;;;5003453;28;20042;-63
2021/08/08 03:39:53;;;;;;;4.95;4.13;;;24.40;99.90;;;;;;5006594;28;20369;-63
2021/08/08 03:42:18;;;;;;;6.53;4.40;;;24.40;99.90;;;;;;5016968;28;20502;-63
2021/08/08 03:44:44;;;;;;;8.75;4.63;;;24.30;99.90;;;;;;5022402;28;20470;-64
2021/08/08 03:47:09;;;;;;;7.45;4.60;;;24.40;99.90;;;;;;5007840;28;20512;-64
2021/08/08 03:49:35;;;;;;;7.68;4.75;;;24.30;99.90;;;;;;5027184;28;20037;-64
2021/08/08 03:52:01;;;;;;;6.78;4.75;;;24.30;99.90;;;;;;5005015;28;20132;-63
2021/08/08 03:54:26;;;;;;;7.00;4.70;;;24.30;99.90;;;;;;5012020;28;20157;-64
2021/08/08 03:56:52;;;;;;;6.53;4.35;;;24.30;99.90;;;;;;5004442;28;20148;-65
2021/08/08 03:59:18;;;;;;;6.70;4.40;;;24.20;99.90;;;;;;5008422;28;20122;-64
2021/08/08 04:01:44;;;;;;;5.88;4.38;;;24.20;99.90;;;;;;5017956;28;20076;-63
2021/08/08 04:04:10;;;;;;;7.53;4.28;;;24.20;99.90;;;;;;5023477;28;20037;-64
2021/08/08 04:06:36;;;;;;;5.43;3.95;;;24.30;99.90;;;;;;5027469;28;20034;-64
2021/08/08 04:09:02;;;;;;;9.48;4.63;;;24.20;99.90;;;;;;5018972;28;20045;-63
2021/08/08 04:11:27;;;;;;;6.60;4.22;;;24.10;99.90;;;;;;5022785;28;20037;-64
2021/08/08 04:13:53;;;;;;;9.18;4.70;;;24.10;99.90;;;;;;5021178;28;20070;-64
2021/08/08 04:16:19;;;;;;;6.60;4.57;;;24.20;99.90;;;;;;5026229;28;20045;-64
2021/08/08 04:18:44;;;;;;;6.82;4.75;;;24.20;99.90;;;;;;5008324;28;20042;-63
2021/08/08 04:21:10;;;;;;;8.90;5.45;;;24.20;99.90;;;;;;5010150;28;20132;-64
2021/08/08 04:23:36;;;;;;;6.63;5.03;;;24.20;99.90;;;;;;5003783;28;20048;-63
2021/08/08 04:26:02;;;;;;;8.57;4.97;;;24.30;99.90;;;;;;5025009;28;20120;-63
2021/08/08 04:28:28;;;;;;;9.10;5.15;;;24.30;99.90;;;;;;5008082;28;20109;-64
2021/08/08 04:30:53;;;;;;;7.80;4.45;;;24.20;99.90;;;;;;5022817;28;20036;-63
2021/08/08 04:33:19;;;;;;;8.70;5.03;;;24.10;99.90;;;;;;5023890;28;20037;-64
2021/08/08 04:35:44;;;;;;;6.28;5.10;;;24.10;99.90;;;;;;5025103;28;20037;-64
2021/08/08 04:38:10;;;;;;;6.50;4.65;;;24.10;99.90;;;;;;5012629;28;20057;-64
2021/08/08 04:40:35;;;;;;;9.48;4.90;;;24.10;99.90;;;;;;5029202;28;20029;-64
2021/08/08 04:43:04;;;;;;;5.28;4.78;;;24.10;99.90;;;;;;5026342;28;20068;-63
2021/08/08 04:45:29;;;;;;;6.95;4.80;;;24.10;99.90;;;;;;5002774;28;20033;-63
2021/08/08 04:47:55;;;;;;;5.63;4.78;;;24.10;99.90;;;;;;5008646;28;20472;-64
2021/08/08 04:50:20;;;;;;;7.80;5.40;;;24.10;99.90;;;;;;5012906;28;20042;-64
2021/08/08 04:52:47;;;;;;;10.15;5.47;;;24.00;99.90;;;;;;5009917;28;20133;-64
2021/08/08 04:55:14;;;;;;;10.00;5.43;;;24.10;99.90;;;;;;5019616;28;20099;-64
2021/08/08 04:57:39;;;;;;;6.82;5.47;;;24.00;99.90;;;;;;5023641;28;20030;-63
2021/08/08 05:00:05;;;;;;;7.32;5.60;;;24.10;99.90;;;;;;5014140;28;20052;-63
2021/08/08 05:02:31;;;;;;;7.07;5.45;;;24.10;99.90;;;;;;5020851;28;20103;-63
2021/08/08 05:04:57;;;;;;;7.07;5.60;;;24.10;99.90;;;;;;5024825;28;20033;-64
2021/08/08 05:07:22;;;;;;;7.88;5.93;;;24.10;99.90;;;;;;5024199;28;20041;-64
2021/08/08 05:09:48;;;;;;;6.35;5.57;;;24.10;99.90;;;;;;5013442;28;20054;-64
2021/08/08 05:12:14;;;;;;;8.63;5.35;;;24.10;99.90;;;;;;5010292;28;20124;-64
2021/08/08 05:14:39;;;;;;;10.27;5.35;;;24.10;99.90;;;;;;5022157;28;20033;-64
2021/08/08 05:17:06;;;;;;;10.25;6.05;;;24.10;99.90;;;;;;5002600;28;20444;-63
2021/08/08 05:19:31;;;;;;;8.63;5.82;;;24.10;99.90;;;;;;5011549;28;20038;-64
2021/08/08 05:21:57;;;;;;;11.55;5.63;;;24.10;99.90;;;;;;5023876;28;20044;-64
2021/08/08 05:24:23;;;;;;;10.07;5.68;;;24.10;99.90;;;;;;5026984;28;20038;-63
2021/08/08 05:26:48;;;;;;;7.65;5.25;;;24.10;99.90;;;;;;5018961;28;20052;-64
2021/08/08 05:29:14;;;;;;;6.25;4.95;;;24.10;99.90;;;;;;5028900;28;20121;-64
2021/08/08 05:31:40;;;;;;;7.22;5.35;;;24.10;99.90;;;;;;5026176;28;20082;-63
2021/08/08 05:34:50;;;;;;;11.00;5.38;;;24.10;99.90;;;;;;5021054;28;20046;-63
2021/08/08 05:37:15;;;;;;;7.35;5.35;;;24.10;99.90;;;;;;4988938;28;20037;-64
2021/08/08 05:39:41;;;;;;;8.95;5.80;;;24.10;99.90;;;;;;5013524;28;20033;-64
2021/08/08 05:42:07;;;;;;;5.93;5.20;;;24.20;99.90;;;;;;5005884;28;20045;-63
2021/08/08 05:44:37;;;;;;;6.25;4.55;;;24.20;99.90;;;;;;5009368;28;20038;-64
2021/08/08 05:47:04;;;;;;;8.02;5.43;;;24.30;99.90;;;;;;5010863;28;20034;-63
2021/08/08 05:49:30;;;;;;;7.72;4.70;;;24.40;99.90;;;;;;5025629;28;20056;-63
2021/08/08 05:51:55;;;;;;;9.10;5.85;;;24.50;99.90;;;;;;5027174;28;20030;-64
2021/08/08 05:54:21;;;;;;;7.05;4.72;;;24.50;99.90;;;;;;5029154;28;20101;-64
2021/08/08 05:56:46;;;;;;;6.18;4.88;;;24.50;99.90;;;;;;4994018;28;20042;-64
2021/08/08 05:59:12;;;;;;;11.77;5.88;;;24.60;99.90;;;;;;5029061;28;20065;-64
2021/08/08 06:01:38;;;;;;;11.82;5.07;;;24.60;99.90;;;;;;5028511;28;20040;-64
2021/08/08 06:04:03;;;;;;;10.05;5.47;;;24.80;99.90;;;;;;5025685;28;20439;-64
2021/08/08 06:06:31;;;;;;;6.07;4.85;;;24.80;99.90;;;;;;5013442;28;20392;-63
2021/08/08 06:08:57;;;;;;;5.82;4.97;;;24.90;99.90;;;;;;5024090;28;20495;-64
2021/08/08 06:11:22;;;;;;;9.05;5.38;;;25.00;99.90;;;;;;5029108;28;20048;-64
2021/08/08 06:13:48;;;;;;;8.15;5.00;;;25.00;99.90;;;;;;5024297;28;20065;-64
2021/08/08 06:16:13;;;;;;;6.05;5.45;;;25.00;99.90;;;;;;5028257;28;20680;-64
2021/08/08 06:18:40;;;;;;;8.18;5.55;;;25.00;99.90;;;;;;5024579;28;20097;-64
2021/08/08 06:21:05;;;;;;;8.00;5.53;;;25.10;99.90;;;;;;5029696;28;20037;-64
2021/08/08 06:23:31;;;;;;;9.27;5.57;;;25.20;99.90;;;;;;5028247;28;20328;-64
2021/08/08 06:25:56;;;;;;;6.32;4.82;;;25.20;99.90;;;;;;5017138;28;20090;-64
2021/08/08 06:28:22;;;;;;;6.60;5.30;;;25.20;99.90;;;;;;5007151;28;20053;-64
2021/08/08 06:30:48;;;;;;;6.13;5.47;;;25.20;99.90;;;;;;5011565;28;20494;-64
2021/08/08 06:33:16;;;;;;;6.82;5.28;;;25.20;99.90;;;;;;4994848;28;20116;-64
2021/08/08 06:35:42;;;;;;;6.95;4.97;;;25.30;99.90;;;;;;5022923;28;20042;-64
2021/08/08 06:38:07;;;;;;;9.52;5.10;;;25.20;99.90;;;;;;5019559;28;20486;-65
2021/08/08 06:40:33;;;;;;;9.57;5.05;;;25.30;99.90;;;;;;5027085;28;20057;-64
2021/08/08 06:43:00;;;;;;;6.78;4.15;;;25.20;99.90;;;;;;5028348;28;20098;-59
2021/08/08 06:45:26;;;;;;;6.60;4.05;;;25.20;99.90;;;;;;5011707;28;20029;-64
2021/08/08 06:47:51;;;;;;;6.18;4.32;;;25.30;99.90;;;;;;5023592;28;20049;-64
2021/08/08 06:50:17;;;;;;;8.30;4.85;;;25.30;99.90;;;;;;5028899;28;20064;-64
2021/08/08 06:52:42;;;;;;;6.30;4.43;;;25.50;99.90;;;;;;5028182;28;20072;-64
2021/08/08 06:55:09;;;;;;;6.97;4.57;;;25.40;99.90;;;;;;5024064;28;20065;-64
2021/08/08 06:57:34;;;;;;;6.47;4.47;;;25.50;99.90;;;;;;5022816;28;20495;-64
2021/08/08 07:00:00;;;;;;;7.03;3.90;;;25.50;99.90;;;;;;5019255;28;20034;-63
2021/08/08 07:02:25;;;;;;;7.43;4.20;;;25.60;99.90;;;;;;5029116;28;20103;-64
2021/08/08 07:04:51;;;;;;;6.22;4.28;;;25.70;99.90;;;;;;5022710;28;20041;-64
2021/08/08 07:07:16;;;;;;;6.43;4.30;;;25.70;99.90;;;;;;5029971;28;20056;-64
2021/08/08 07:09:42;;;;;;;6.55;4.10;;;25.80;99.90;;;;;;5023130;28;20040;-64
2021/08/08 07:12:08;;;;;;;8.02;4.30;;;25.80;99.90;;;;;;5027279;28;20116;-64
2021/08/08 07:14:35;;;;;;;10.23;4.55;;;25.80;99.90;;;;;;5024480;28;20488;-65
2021/08/08 07:17:02;;;;;;;8.10;6.22;;;25.80;99.90;;;;;;5008263;28;20499;-63
2021/08/08 07:19:27;;;;;;;9.85;5.22;;;25.80;99.90;;;;;;5003563;28;20492;-64
2021/08/08 07:21:53;;;;;;;7.63;4.88;;;25.80;99.90;;;;;;5003527;28;20044;-64
2021/08/08 07:24:20;;;;;;;5.80;4.20;;;25.70;99.90;;;;;;5013702;28;20054;-64
2021/08/08 07:26:46;;;;;;;5.57;4.13;;;25.70;99.90;;;;;;5003706;28;20030;-64
2021/08/08 07:29:12;;;;;;;5.70;4.15;;;25.70;99.90;;;;;;5020652;28;20513;-64
2021/08/08 07:31:37;;;;;;;5.50;3.83;;;25.80;99.90;;;;;;5003597;28;20500;-64
2021/08/08 07:34:03;;;;;;;5.93;4.65;;;25.80;99.90;;;;;;5022743;28;20120;-64
2021/08/08 07:36:29;;;;;;;6.65;4.43;;;25.70;99.90;;;;;;5021620;28;20519;-59
2021/08/08 07:38:54;;;;;;;6.22;3.95;;;25.80;99.90;;;;;;5010865;28;20062;-64
2021/08/08 07:41:20;;;;;;;7.45;3.97;;;25.80;99.90;;;;;;5005647;28;20080;-64
2021/08/08 07:43:46;;;;;;;5.00;3.90;;;25.90;99.80;;;;;;5016666;28;20080;-64
2021/08/08 07:46:11;;;;;;;6.60;3.75;;;26.00;99.30;;;;;;5022868;28;20095;-64
2021/08/08 07:48:37;;;;;;;9.13;4.18;;;26.00;98.90;;;;;;5027799;28;20041;-64
2021/08/08 07:51:03;;;;;;;11.50;4.70;;;26.10;98.90;;;;;;5023129;28;20061;-64
2021/08/08 07:53:28;;;;;;;5.57;3.80;;;26.30;98.20;;;;;;5009527;28;20453;-65
2021/08/08 07:55:55;;;;;;;8.10;4.43;;;26.40;98.10;;;;;;5023959;28;20037;-64
2021/08/08 07:58:22;;;;;;;8.07;4.45;;;26.40;97.60;;;;;;5002016;28;20034;-64
2021/08/08 08:00:48;;;;;;;6.38;4.22;;;26.50;97.30;;;;;;5009554;28;20104;-64
2021/08/08 08:03:13;;;;;;;7.03;4.18;;;26.70;96.80;;;;;;5003186;28;20576;-64
2021/08/08 08:05:39;;;;;;;5.15;3.80;;;26.60;96.80;;;;;;5010688;28;20555;-64
2021/08/08 08:08:05;;;;;;;4.80;3.63;;;26.70;96.70;;;;;;5009192;28;20088;-64
2021/08/08 08:10:31;;;;;;;5.97;3.83;;;26.80;96.70;;;;;;5020461;28;20079;-63
2021/08/08 08:12:58;;;;;;;5.82;3.72;;;26.70;96.80;;;;;;5022818;28;20114;-64
2021/08/08 08:15:24;;;;;;;6.00;3.75;;;26.50;97.00;;;;;;5002213;28;20045;-64
2021/08/08 08:17:51;;;;;;;6.68;3.85;;;26.40;97.20;;;;;;4992873;28;20379;-64
2021/08/08 08:20:17;;;;;;;8.55;3.58;;;26.50;97.10;;;;;;5014699;28;20100;-64
2021/08/08 08:22:43;;;;;;;7.47;4.00;;;26.40;96.80;;;;;;5022219;28;20036;-64
2021/08/08 08:25:09;;;;;;;7.25;3.97;;;26.50;96.60;;;;;;5027470;28;20037;-65
2021/08/08 08:27:35;;;;;;;5.88;3.97;;;26.50;97.00;;;;;;5023525;28;20038;-64
2021/08/08 08:30:01;;;;;;;9.25;3.95;;;26.40;96.80;;;;;;5018687;28;20053;-64
2021/08/08 08:32:26;;;;;;;6.65;4.25;;;26.40;97.10;;;;;;5029020;28;20121;-65
2021/08/08 08:34:52;;;;;;;7.30;3.72;;;26.40;96.30;;;;;;5021854;28;20068;-64
2021/08/08 08:37:19;;;;;;;5.47;3.63;;;26.60;96.40;;;;;;5021807;28;20484;-64
2021/08/08 08:39:45;;;;;;;8.93;3.47;;;26.60;95.80;;;;;;5021043;28;20029;-64
2021/08/08 08:42:11;;;;;;;6.57;4.07;;;26.70;95.80;;;;;;5022370;28;20116;-64
2021/08/08 08:44:37;;;;;;;9.27;4.20;;;26.80;96.00;;;;;;5001155;28;20026;-64
2021/08/08 08:47:05;;;;;;;8.40;4.00;;;26.90;95.30;;;;;;5020972;28;20034;-64
2021/08/08 08:49:31;;;;;;;11.38;4.28;;;26.80;94.80;;;;;;5021815;28;20045;-65
2021/08/08 08:52:07;;;;;;;8.43;4.10;;;26.90;95.20;;;;;;5006845;28;20045;-65
2021/08/08 08:54:33;;;;;;;8.35;3.70;;;27.00;94.70;;;;;;5020254;28;20053;-64
2021/08/08 08:56:59;;;;;;;7.22;4.05;;;27.20;94.80;;;;;;5019220;28;20034;-65
2021/08/08 08:59:25;;;;;;;7.05;3.80;;;27.20;94.80;;;;;;5026758;28;20387;-65
2021/08/08 09:01:51;;;;;;;7.63;4.22;;;27.10;94.80;;;;;;5030921;28;20037;-65
2021/08/08 09:04:18;;;;;;;5.07;4.07;;;27.20;95.40;;;;;;5017528;28;20045;-65
2021/08/08 09:06:44;;;;;;;6.65;3.47;;;27.30;95.00;;;;;;5013212;28;20044;-64
2021/08/08 09:09:10;;;;;;;6.22;3.70;;;27.40;95.10;;;;;;5022011;28;20060;-64
2021/08/08 09:11:41;;;;;;;8.07;4.15;;;27.60;94.20;;;;;;5026157;28;20034;-65
2021/08/08 09:14:09;;;;;;;9.13;4.55;;;27.60;93.90;;;;;;5023699;28;20124;-65
2021/08/08 09:16:40;;;;;;;8.07;4.20;;;27.50;94.50;;;;;;5022496;28;20045;-65
2021/08/08 09:19:06;;;;;;;7.15;3.80;;;27.60;94.00;;;;;;5017593;28;20487;-64
2021/08/08 09:21:34;;;;;;;5.75;4.22;;;27.70;94.20;;;;;;5025094;28;20039;-64
2021/08/08 09:24:02;;;;;;;5.03;3.90;;;27.80;93.80;;;;;;5031917;28;20092;-66
2021/08/08 09:26:32;;;;;;;8.27;4.63;;;27.80;93.80;;;;;;5026630;28;20108;-65
2021/08/08 09:29:08;;;;;;;7.65;3.95;;;27.80;93.30;;;;;;5021386;28;20156;-65
2021/08/08 09:31:47;;;;;;;6.18;3.88;;;27.70;94.50;;;;;;5019459;28;20030;-64
2021/08/08 09:34:31;;;;;;;5.47;3.50;;;27.70;93.40;;;;;;5024439;28;20091;-64
2021/08/08 09:36:58;;;;;;;7.03;4.50;;;27.70;93.10;;;;;;5019171;28;20038;-65
2021/08/08 09:39:36;;;;;;;8.05;4.15;;;27.60;93.50;;;;;;5014531;28;20124;-64
2021/08/08 09:42:13;;;;;;;6.80;4.05;;;27.50;93.80;;;;;;5001915;28;20092;-64
2021/08/08 09:44:54;;;;;;;6.97;4.32;;;27.60;94.50;;;;;;5026125;28;20391;-64
2021/08/08 09:47:43;;;;;;;5.05;3.90;;;27.60;93.50;;;;;;5025228;28;20391;-65
2021/08/08 09:50:16;;;;;;;11.25;4.47;;;27.70;93.50;;;;;;4991577;28;20029;-65
2021/08/08 09:52:50;;;;;;;6.07;4.13;;;27.90;93.60;;;;;;5020311;28;20037;-65
2021/08/08 09:55:25;;;;;;;5.88;4.35;;;27.80;94.00;;;;;;5026763;28;20037;-65
2021/08/08 09:57:51;;;;;;;6.93;3.90;;;27.60;93.50;;;;;;5006450;28;20033;-65
2021/08/08 10:00:31;;;;;;;7.47;3.83;;;27.80;93.70;;;;;;5022599;28;20060;-65
2021/08/08 10:02:58;;;;;;;7.55;3.97;;;28.00;93.10;;;;;;5008312;28;20034;-65
2021/08/08 10:05:25;;;;;;;6.40;3.85;;;28.00;92.60;;;;;;5008116;28;20029;-65
2021/08/08 10:07:52;;;;;;;5.93;4.15;;;28.10;92.80;;;;;;5006895;28;20053;-65
2021/08/08 10:10:18;;;;;;;8.82;4.07;;;28.00;91.80;;;;;;5020277;28;20411;-65
2021/08/08 10:13:02;;;;;;;4.47;3.83;;;28.10;92.50;;;;;;5008809;28;20046;-65
2021/08/08 10:15:28;;;;;;;5.47;3.42;;;28.10;92.20;;;;;;5020807;28;20042;-65
2021/08/08 10:17:57;;;;;;;5.32;4.03;;;28.10;92.20;;;;;;5018838;28;20037;-65
2021/08/08 10:20:23;;;;;;;7.70;4.53;;;28.20;91.40;;;;;;5024480;28;20177;-65
2021/08/08 10:22:54;;;;;;;7.72;4.45;;;28.30;91.00;;;;;;5025395;28;28191;-65
2021/08/08 10:25:19;;;;;;;4.10;3.63;;;28.40;91.00;;;;;;5028211;28;20137;-65
2021/08/08 10:27:45;;;;;;;5.90;4.50;;;28.50;90.50;;;;;;5023321;28;20125;-65
2021/08/08 10:30:11;;;;;;;5.03;3.65;;;28.60;90.10;;;;;;5024987;28;20120;-65
2021/08/08 10:32:37;;;;;;;4.75;3.88;;;28.60;89.40;;;;;;5007400;28;20451;-65
2021/08/08 10:35:14;;;;;;;8.27;4.05;;;28.70;90.00;;;;;;5011411;28;20044;-65
2021/08/08 10:37:44;;;;;;;6.38;4.10;;;28.80;89.80;;;;;;5023905;28;20647;-65
2021/08/08 10:40:12;;;;;;;7.05;4.07;;;28.70;90.70;;;;;;5024980;28;20080;-65
2021/08/08 10:42:47;;;;;;;7.80;4.00;;;28.50;90.80;;;;;;5002611;28;20037;-66
2021/08/08 10:45:28;;;;;;;5.18;3.63;;;28.40;90.40;;;;;;5010158;28;20038;-65
2021/08/08 10:48:00;;;;;;;7.78;3.85;;;28.60;90.00;;;;;;5007761;28;20411;-66
2021/08/08 10:50:38;;;;;;;5.55;4.20;;;28.70;90.80;;;;;;5008430;28;20476;-65
2021/08/08 10:53:04;;;;;;;7.80;3.80;;;28.80;89.50;;;;;;4994346;28;20076;-64
2021/08/08 10:55:30;;;;;;;7.20;4.43;;;28.90;89.90;;;;;;5010462;28;20057;-60
2021/08/08 10:57:59;;;;;;;4.25;3.75;;;28.90;89.10;;;;;;5009925;28;20156;-65
2021/08/08 11:00:33;;;;;;;7.47;4.45;;;28.90;88.70;;;;;;5015787;28;20610;-65
2021/08/08 11:03:17;;;;;;;8.77;3.92;;;28.90;87.70;;;;;;5009285;28;20386;-65
2021/08/08 11:05:44;;;;;;;6.93;4.00;;;29.10;88.40;;;;;;4986136;28;20496;-65
2021/08/08 11:08:11;;;;;;;5.65;3.20;;;28.90;87.60;;;;;;5010704;28;20069;-65
2021/08/08 11:10:42;;;;;;;4.20;3.63;;;28.90;84.20;;;;;;5022447;28;20033;-65
2021/08/08 11:13:19;;;;;;;8.13;3.58;;;29.00;81.30;;;;;;5022630;28;20487;-65
2021/08/08 11:15:45;;;;;;;5.82;3.72;;;29.10;83.10;;;;;;5022625;28;20040;-66
2021/08/08 11:18:11;;;;;;;10.02;4.25;;;29.50;82.30;;;;;;5017588;28;20046;-65
2021/08/08 11:20:37;;;;;;;9.35;4.10;;;29.80;81.70;;;;;;5003993;28;20111;-65
2021/08/08 11:23:04;;;;;;;5.97;2.80;;;29.90;79.00;;;;;;5025351;28;20057;-65
2021/08/08 11:25:38;;;;;;;5.90;3.45;;;30.10;71.70;;;;;;5024246;28;20613;-66
2021/08/08 11:28:04;;;;;;;5.63;3.90;;;30.20;66.80;;;;;;5016628;28;20515;-65
2021/08/08 11:30:38;;;;;;;4.85;2.88;;;29.90;71.70;;;;;;5000870;28;20040;-62
2021/08/08 11:33:04;;;;;;;3.80;3.30;;;29.60;70.10;;;;;;5011678;28;20041;-66
2021/08/08 11:35:30;;;;;;;5.75;3.47;;;30.20;70.60;;;;;;5008296;28;20044;-61
2021/08/08 11:37:55;;;;;;;5.45;3.17;;;30.80;66.60;;;;;;5017736;28;20038;-66
2021/08/08 11:40:31;;;;;;;5.47;3.40;;;31.30;64.60;;;;;;5001685;28;20041;-66
2021/08/08 11:43:04;;;;;;;3.95;2.80;;;31.20;64.10;;;;;;5008901;28;20078;-66
2021/08/08 11:45:39;;;;;;;5.53;3.13;;;30.80;64.00;;;;;;4995020;28;20492;-67
2021/08/08 11:48:06;;;;;;;3.80;3.25;;;31.30;63.80;;;;;;4962867;28;20129;-66
2021/08/08 11:50:32;;;;;;;5.28;3.33;;;31.90;63.00;;;;;;5003065;28;20042;-65
2021/08/08 11:52:59;;;;;;;4.43;3.25;;;32.30;58.80;;;;;;5008942;28;20395;-66
2021/08/08 11:55:25;;;;;;;6.22;3.40;;;32.80;62.30;;;;;;5011335;28;20053;-67
2021/08/08 11:58:02;;;;;;;6.43;3.00;;;33.90;52.00;;;;;;5012732;28;20443;-66
2021/08/08 12:00:29;;;;;;;4.05;3.00;;;34.50;72.90;;;;;;5006129;28;20379;-66
2021/08/08 12:02:56;;;;;;;4.53;3.30;;;33.60;49.10;;;;;;5022186;28;20388;-66
2021/08/08 12:05:22;;;;;;;3.60;3.28;;;33.10;48.70;;;;;;5012576;28;20052;-66
2021/08/08 12:07:50;;;;;;;3.63;3.05;;;33.30;49.00;;;;;;5007001;28;20050;-66
2021/08/08 12:10:25;;;;;;;5.57;2.85;;;33.50;48.90;;;;;;5010402;28;20513;-66
2021/08/08 12:12:50;;;;;;;5.22;3.47;;;33.80;51.70;;;;;;5002758;28;20045;-66
2021/08/08 12:15:16;;;;;;;4.68;3.63;;;34.00;50.80;;;;;;5026544;28;20046;-66
2021/08/08 12:17:41;;;;;;;9.18;3.92;;;34.00;50.90;;;;;;5025166;28;20030;-66
2021/08/08 12:20:11;;;;;;;6.03;3.17;;;34.10;47.10;;;;;;5025578;28;20038;-66
2021/08/08 12:22:39;;;;;;;4.88;3.47;;;35.20;64.80;;;;;;5017114;28;20045;-66
2021/08/08 12:25:07;;;;;;;5.07;3.47;;;35.10;59.80;;;;;;5026572;28;20037;-67
2021/08/08 12:27:36;;;;;;;5.00;3.30;;;34.60;44.20;;;;;;5021533;28;20041;-66
2021/08/08 12:30:04;;;;;;;5.95;3.63;;;35.30;44.00;;;;;;5029756;28;20052;-66
2021/08/08 12:32:37;;;;;;;4.90;3.55;;;36.00;42.70;;;;;;5019078;28;20476;-66
2021/08/08 12:35:08;;;;;;;4.25;3.40;;;36.80;40.90;;;;;;5012716;28;20454;-65
2021/08/08 12:37:33;;;;;;;4.47;2.95;;;37.40;39.60;;;;;;5009382;28;20038;-66
2021/08/08 12:40:14;;;;;;;5.10;4.00;;;37.60;39.20;;;;;;5015353;28;20052;-66
2021/08/08 12:42:41;;;;;;;4.90;3.78;;;37.30;38.00;;;;;;4995456;28;20033;-66
2021/08/08 12:45:12;;;;;;;4.18;3.72;;;37.00;39.00;;;;;;5024974;28;20430;-66
2021/08/08 12:47:40;;;;;;;4.05;3.67;;;37.70;36.60;;;;;;5017343;28;20140;-66